sensor_id;sensor_type;location;lat;lon;timestamp;P1;durP1;ratioP1;P2;durP2;ratioP2
65230;SDS011;51813;40.666;16.602;2023-10-31T00:00:44;3.35;;;2.13;;
65230;SDS011;51813;40.666;16.602;2023-10-31T00:03:10;4.82;;;2.35;;
65230;SDS011;51813;40.666;16.602;2023-10-31T00:05:35;4.50;;;2.13;;
65230;SDS011;51813;40.666;16.602;2023-10-31T00:08:01;4.57;;;2.10;;
65230;SDS011;51813;40.666;16.602;2023-10-31T00:10:27;3.90;;;2.08;;
65230;SDS011;51813;40.666;16.602;2023-10-31T00:12:53;5.22;;;2.35;;
65230;SDS011;51813;40.666;16.602;2023-10-31T00:15:18;3.40;;;2.22;;
65230;SDS011;51813;40.666;16.602;2023-10-31T00:17:44;4.75;;;2.35;;
65230;SDS011;51813;40.666;16.602;2023-10-31T00:20:10;4.85;;;2.33;;
65230;SDS011;51813;40.666;16.602;2023-10-31T00:22:35;3.78;;;2.10;;
65230;SDS011;51813;40.666;16.602;2023-10-31T00:25:01;5.50;;;2.38;;
65230;SDS011;51813;40.666;16.602;2023-10-31T00:27:27;3.67;;;2.03;;
65230;SDS011;51813;40.666;16.602;2023-10-31T00:29:52;3.20;;;1.98;;
65230;SDS011;51813;40.666;16.602;2023-10-31T00:32:18;4.10;;;1.80;;
65230;SDS011;51813;40.666;16.602;2023-10-31T00:34:44;4.65;;;2.05;;
65230;SDS011;51813;40.666;16.602;2023-10-31T00:37:09;3.28;;;1.75;;
65230;SDS011;51813;40.666;16.602;2023-10-31T00:39:35;5.13;;;1.95;;
65230;SDS011;51813;40.666;16.602;2023-10-31T00:42:01;4.95;;;2.20;;
65230;SDS011;51813;40.666;16.602;2023-10-31T00:44:26;4.22;;;2.08;;
65230;SDS011;51813;40.666;16.602;2023-10-31T00:46:52;4.18;;;1.92;;
65230;SDS011;51813;40.666;16.602;2023-10-31T00:49:17;4.88;;;1.75;;
65230;SDS011;51813;40.666;16.602;2023-10-31T00:51:43;4.47;;;2.22;;
65230;SDS011;51813;40.666;16.602;2023-10-31T00:54:09;3.85;;;2.00;;
65230;SDS011;51813;40.666;16.602;2023-10-31T00:56:34;2.90;;;1.95;;
65230;SDS011;51813;40.666;16.602;2023-10-31T00:59:00;3.92;;;1.90;;
65230;SDS011;51813;40.666;16.602;2023-10-31T01:01:26;5.22;;;2.10;;
65230;SDS011;51813;40.666;16.602;2023-10-31T01:03:52;3.28;;;2.10;;
65230;SDS011;51813;40.666;16.602;2023-10-31T01:06:17;6.30;;;2.25;;
65230;SDS011;51813;40.666;16.602;2023-10-31T01:08:43;3.13;;;1.80;;
65230;SDS011;51813;40.666;16.602;2023-10-31T01:11:09;5.00;;;1.90;;
65230;SDS011;51813;40.666;16.602;2023-10-31T01:13:34;3.25;;;1.77;;
65230;SDS011;51813;40.666;16.602;2023-10-31T01:16:00;3.97;;;2.00;;
65230;SDS011;51813;40.666;16.602;2023-10-31T01:18:26;3.70;;;2.15;;
65230;SDS011;51813;40.666;16.602;2023-10-31T01:20:52;4.90;;;2.30;;
65230;SDS011;51813;40.666;16.602;2023-10-31T01:23:17;3.70;;;1.92;;
65230;SDS011;51813;40.666;16.602;2023-10-31T01:25:43;3.35;;;1.63;;
65230;SDS011;51813;40.666;16.602;2023-10-31T01:28:09;3.97;;;2.05;;
65230;SDS011;51813;40.666;16.602;2023-10-31T01:30:34;3.28;;;1.90;;
65230;SDS011;51813;40.666;16.602;2023-10-31T01:33:00;5.55;;;2.00;;
65230;SDS011;51813;40.666;16.602;2023-10-31T01:35:26;4.18;;;2.10;;
65230;SDS011;51813;40.666;16.602;2023-10-31T01:37:52;3.92;;;1.60;;
65230;SDS011;51813;40.666;16.602;2023-10-31T01:40:18;3.88;;;2.00;;
65230;SDS011;51813;40.666;16.602;2023-10-31T01:42:43;2.78;;;1.55;;
65230;SDS011;51813;40.666;16.602;2023-10-31T01:45:09;5.03;;;2.20;;
65230;SDS011;51813;40.666;16.602;2023-10-31T01:47:35;3.35;;;1.80;;
65230;SDS011;51813;40.666;16.602;2023-10-31T01:50:01;4.05;;;2.03;;
65230;SDS011;51813;40.666;16.602;2023-10-31T01:52:27;5.40;;;2.40;;
65230;SDS011;51813;40.666;16.602;2023-10-31T01:54:53;3.53;;;1.98;;
65230;SDS011;51813;40.666;16.602;2023-10-31T01:57:20;5.32;;;2.05;;
65230;SDS011;51813;40.666;16.602;2023-10-31T01:59:47;3.60;;;2.00;;
65230;SDS011;51813;40.666;16.602;2023-10-31T02:02:13;4.95;;;2.03;;
65230;SDS011;51813;40.666;16.602;2023-10-31T02:04:40;3.55;;;1.90;;
65230;SDS011;51813;40.666;16.602;2023-10-31T02:07:05;3.30;;;1.92;;
65230;SDS011;51813;40.666;16.602;2023-10-31T02:09:31;3.38;;;1.95;;
65230;SDS011;51813;40.666;16.602;2023-10-31T02:11:57;3.80;;;1.80;;
65230;SDS011;51813;40.666;16.602;2023-10-31T02:14:23;3.47;;;1.67;;
65230;SDS011;51813;40.666;16.602;2023-10-31T02:16:50;3.97;;;1.80;;
65230;SDS011;51813;40.666;16.602;2023-10-31T02:19:19;3.42;;;1.98;;
65230;SDS011;51813;40.666;16.602;2023-10-31T02:21:45;4.35;;;1.88;;
65230;SDS011;51813;40.666;16.602;2023-10-31T02:24:11;2.92;;;1.70;;
65230;SDS011;51813;40.666;16.602;2023-10-31T02:26:37;4.07;;;1.80;;
65230;SDS011;51813;40.666;16.602;2023-10-31T02:29:02;3.75;;;1.90;;
65230;SDS011;51813;40.666;16.602;2023-10-31T02:31:28;4.30;;;1.98;;
65230;SDS011;51813;40.666;16.602;2023-10-31T02:33:54;3.53;;;1.95;;
65230;SDS011;51813;40.666;16.602;2023-10-31T02:36:20;2.65;;;1.80;;
65230;SDS011;51813;40.666;16.602;2023-10-31T02:38:46;3.92;;;1.90;;
65230;SDS011;51813;40.666;16.602;2023-10-31T02:41:12;3.03;;;1.80;;
65230;SDS011;51813;40.666;16.602;2023-10-31T02:43:38;4.03;;;2.08;;
65230;SDS011;51813;40.666;16.602;2023-10-31T02:46:04;3.97;;;2.03;;
65230;SDS011;51813;40.666;16.602;2023-10-31T02:48:30;3.80;;;1.80;;
65230;SDS011;51813;40.666;16.602;2023-10-31T02:51:03;3.60;;;1.83;;
65230;SDS011;51813;40.666;16.602;2023-10-31T02:53:29;3.65;;;1.63;;
65230;SDS011;51813;40.666;16.602;2023-10-31T02:55:55;3.88;;;1.92;;
65230;SDS011;51813;40.666;16.602;2023-10-31T02:58:21;3.47;;;1.73;;
65230;SDS011;51813;40.666;16.602;2023-10-31T03:00:46;4.43;;;2.10;;
65230;SDS011;51813;40.666;16.602;2023-10-31T03:03:12;3.28;;;1.80;;
65230;SDS011;51813;40.666;16.602;2023-10-31T03:05:38;3.85;;;1.60;;
65230;SDS011;51813;40.666;16.602;2023-10-31T03:08:04;4.85;;;2.10;;
65230;SDS011;51813;40.666;16.602;2023-10-31T03:10:30;3.25;;;1.85;;
65230;SDS011;51813;40.666;16.602;2023-10-31T03:12:55;4.00;;;1.83;;
65230;SDS011;51813;40.666;16.602;2023-10-31T03:15:21;2.83;;;1.80;;
65230;SDS011;51813;40.666;16.602;2023-10-31T03:17:47;3.88;;;2.00;;
65230;SDS011;51813;40.666;16.602;2023-10-31T03:20:12;3.20;;;1.90;;
65230;SDS011;51813;40.666;16.602;2023-10-31T03:22:38;3.35;;;1.70;;
65230;SDS011;51813;40.666;16.602;2023-10-31T03:25:04;3.90;;;1.98;;
65230;SDS011;51813;40.666;16.602;2023-10-31T03:27:30;3.38;;;1.77;;
65230;SDS011;51813;40.666;16.602;2023-10-31T03:29:56;3.65;;;1.88;;
65230;SDS011;51813;40.666;16.602;2023-10-31T03:32:21;5.05;;;1.85;;
65230;SDS011;51813;40.666;16.602;2023-10-31T03:34:47;3.13;;;1.80;;
65230;SDS011;51813;40.666;16.602;2023-10-31T03:37:13;3.10;;;1.80;;
65230;SDS011;51813;40.666;16.602;2023-10-31T03:39:38;3.05;;;1.70;;
65230;SDS011;51813;40.666;16.602;2023-10-31T03:42:04;2.75;;;1.65;;
65230;SDS011;51813;40.666;16.602;2023-10-31T03:44:30;2.80;;;1.60;;
65230;SDS011;51813;40.666;16.602;2023-10-31T03:46:56;4.05;;;1.65;;
65230;SDS011;51813;40.666;16.602;2023-10-31T03:49:21;4.60;;;1.98;;
65230;SDS011;51813;40.666;16.602;2023-10-31T03:51:47;3.03;;;1.60;;
65230;SDS011;51813;40.666;16.602;2023-10-31T03:54:13;3.53;;;1.77;;
65230;SDS011;51813;40.666;16.602;2023-10-31T03:56:39;2.72;;;1.90;;
65230;SDS011;51813;40.666;16.602;2023-10-31T03:59:06;3.38;;;1.80;;
65230;SDS011;51813;40.666;16.602;2023-10-31T04:01:31;5.53;;;1.90;;
65230;SDS011;51813;40.666;16.602;2023-10-31T04:03:57;2.60;;;1.67;;
65230;SDS011;51813;40.666;16.602;2023-10-31T04:06:23;4.28;;;1.80;;
65230;SDS011;51813;40.666;16.602;2023-10-31T04:08:48;3.40;;;1.75;;
65230;SDS011;51813;40.666;16.602;2023-10-31T04:11:14;3.60;;;1.63;;
65230;SDS011;51813;40.666;16.602;2023-10-31T04:13:40;3.83;;;1.77;;
65230;SDS011;51813;40.666;16.602;2023-10-31T04:16:05;3.38;;;1.90;;
65230;SDS011;51813;40.666;16.602;2023-10-31T04:18:31;3.15;;;1.67;;
65230;SDS011;51813;40.666;16.602;2023-10-31T04:20:57;4.38;;;1.95;;
65230;SDS011;51813;40.666;16.602;2023-10-31T04:23:23;2.90;;;1.70;;
65230;SDS011;51813;40.666;16.602;2023-10-31T04:25:49;3.15;;;1.70;;
65230;SDS011;51813;40.666;16.602;2023-10-31T04:28:15;2.65;;;1.77;;
65230;SDS011;51813;40.666;16.602;2023-10-31T04:30:41;4.20;;;1.90;;
65230;SDS011;51813;40.666;16.602;2023-10-31T04:33:07;3.30;;;1.70;;
65230;SDS011;51813;40.666;16.602;2023-10-31T04:35:32;3.65;;;1.80;;
65230;SDS011;51813;40.666;16.602;2023-10-31T04:37:58;2.90;;;1.73;;
65230;SDS011;51813;40.666;16.602;2023-10-31T04:40:24;3.00;;;1.88;;
65230;SDS011;51813;40.666;16.602;2023-10-31T04:42:49;2.90;;;1.90;;
65230;SDS011;51813;40.666;16.602;2023-10-31T04:45:15;3.60;;;1.80;;
65230;SDS011;51813;40.666;16.602;2023-10-31T04:47:41;3.63;;;1.80;;
65230;SDS011;51813;40.666;16.602;2023-10-31T04:50:07;3.85;;;1.83;;
65230;SDS011;51813;40.666;16.602;2023-10-31T04:52:33;4.53;;;1.80;;
65230;SDS011;51813;40.666;16.602;2023-10-31T04:54:59;4.38;;;2.00;;
65230;SDS011;51813;40.666;16.602;2023-10-31T04:57:24;2.88;;;1.60;;
65230;SDS011;51813;40.666;16.602;2023-10-31T04:59:50;3.28;;;1.83;;
65230;SDS011;51813;40.666;16.602;2023-10-31T05:02:17;4.35;;;1.90;;
65230;SDS011;51813;40.666;16.602;2023-10-31T05:04:43;3.78;;;1.80;;
65230;SDS011;51813;40.666;16.602;2023-10-31T05:07:08;3.67;;;1.80;;
65230;SDS011;51813;40.666;16.602;2023-10-31T05:09:34;3.85;;;1.80;;
65230;SDS011;51813;40.666;16.602;2023-10-31T05:12:00;3.25;;;1.70;;
65230;SDS011;51813;40.666;16.602;2023-10-31T05:14:26;3.67;;;1.73;;
65230;SDS011;51813;40.666;16.602;2023-10-31T05:16:51;4.72;;;1.95;;
65230;SDS011;51813;40.666;16.602;2023-10-31T05:19:17;2.70;;;1.60;;
65230;SDS011;51813;40.666;16.602;2023-10-31T05:21:43;2.92;;;1.83;;
65230;SDS011;51813;40.666;16.602;2023-10-31T05:24:09;3.25;;;1.90;;
65230;SDS011;51813;40.666;16.602;2023-10-31T05:26:34;4.60;;;1.83;;
65230;SDS011;51813;40.666;16.602;2023-10-31T05:29:00;3.83;;;1.70;;
65230;SDS011;51813;40.666;16.602;2023-10-31T05:31:26;2.92;;;1.60;;
65230;SDS011;51813;40.666;16.602;2023-10-31T05:33:52;3.20;;;1.80;;
65230;SDS011;51813;40.666;16.602;2023-10-31T05:36:18;3.45;;;1.83;;
65230;SDS011;51813;40.666;16.602;2023-10-31T05:38:45;4.28;;;1.90;;
65230;SDS011;51813;40.666;16.602;2023-10-31T05:41:10;3.08;;;1.88;;
65230;SDS011;51813;40.666;16.602;2023-10-31T05:43:37;3.80;;;1.80;;
65230;SDS011;51813;40.666;16.602;2023-10-31T05:46:03;3.25;;;1.60;;
65230;SDS011;51813;40.666;16.602;2023-10-31T05:48:30;4.00;;;1.85;;
65230;SDS011;51813;40.666;16.602;2023-10-31T05:50:56;3.95;;;1.98;;
65230;SDS011;51813;40.666;16.602;2023-10-31T05:53:21;3.55;;;1.88;;
65230;SDS011;51813;40.666;16.602;2023-10-31T05:55:47;3.60;;;1.70;;
65230;SDS011;51813;40.666;16.602;2023-10-31T05:58:13;2.92;;;1.63;;
65230;SDS011;51813;40.666;16.602;2023-10-31T06:00:38;3.85;;;2.00;;
65230;SDS011;51813;40.666;16.602;2023-10-31T06:03:04;3.13;;;1.75;;
65230;SDS011;51813;40.666;16.602;2023-10-31T06:05:30;4.40;;;2.35;;
65230;SDS011;51813;40.666;16.602;2023-10-31T06:07:55;2.65;;;1.70;;
65230;SDS011;51813;40.666;16.602;2023-10-31T06:10:21;3.03;;;1.67;;
65230;SDS011;51813;40.666;16.602;2023-10-31T06:12:47;4.97;;;1.90;;
65230;SDS011;51813;40.666;16.602;2023-10-31T06:15:12;2.90;;;1.80;;
65230;SDS011;51813;40.666;16.602;2023-10-31T06:17:38;2.45;;;1.60;;
65230;SDS011;51813;40.666;16.602;2023-10-31T06:20:06;3.50;;;1.90;;
65230;SDS011;51813;40.666;16.602;2023-10-31T06:22:32;4.03;;;1.90;;
65230;SDS011;51813;40.666;16.602;2023-10-31T06:24:58;2.65;;;1.65;;
65230;SDS011;51813;40.666;16.602;2023-10-31T06:27:24;3.38;;;1.88;;
65230;SDS011;51813;40.666;16.602;2023-10-31T06:29:50;2.67;;;1.50;;
65230;SDS011;51813;40.666;16.602;2023-10-31T06:32:15;3.72;;;1.90;;
65230;SDS011;51813;40.666;16.602;2023-10-31T06:34:41;3.92;;;2.00;;
65230;SDS011;51813;40.666;16.602;2023-10-31T06:37:07;2.72;;;1.80;;
65230;SDS011;51813;40.666;16.602;2023-10-31T06:39:32;2.53;;;1.67;;
65230;SDS011;51813;40.666;16.602;2023-10-31T06:41:58;2.80;;;1.83;;
65230;SDS011;51813;40.666;16.602;2023-10-31T06:44:24;4.28;;;1.80;;
65230;SDS011;51813;40.666;16.602;2023-10-31T06:46:49;3.05;;;1.70;;
65230;SDS011;51813;40.666;16.602;2023-10-31T06:49:15;3.17;;;1.80;;
65230;SDS011;51813;40.666;16.602;2023-10-31T06:51:41;3.40;;;1.75;;
65230;SDS011;51813;40.666;16.602;2023-10-31T06:54:06;3.45;;;1.80;;
65230;SDS011;51813;40.666;16.602;2023-10-31T06:56:32;3.50;;;1.77;;
65230;SDS011;51813;40.666;16.602;2023-10-31T06:58:58;3.97;;;2.20;;
65230;SDS011;51813;40.666;16.602;2023-10-31T07:01:24;3.63;;;1.70;;
65230;SDS011;51813;40.666;16.602;2023-10-31T07:03:49;2.70;;;1.73;;
65230;SDS011;51813;40.666;16.602;2023-10-31T07:06:15;3.25;;;1.70;;
65230;SDS011;51813;40.666;16.602;2023-10-31T07:08:41;4.10;;;1.90;;
65230;SDS011;51813;40.666;16.602;2023-10-31T07:11:06;3.80;;;2.00;;
65230;SDS011;51813;40.666;16.602;2023-10-31T07:13:32;3.30;;;1.70;;
65230;SDS011;51813;40.666;16.602;2023-10-31T07:15:58;3.58;;;1.75;;
65230;SDS011;51813;40.666;16.602;2023-10-31T07:18:23;4.20;;;2.30;;
65230;SDS011;51813;40.666;16.602;2023-10-31T07:20:49;4.35;;;1.85;;
65230;SDS011;51813;40.666;16.602;2023-10-31T07:23:14;3.83;;;2.22;;
65230;SDS011;51813;40.666;16.602;2023-10-31T07:25:41;3.40;;;2.03;;
65230;SDS011;51813;40.666;16.602;2023-10-31T07:28:06;3.45;;;1.90;;
65230;SDS011;51813;40.666;16.602;2023-10-31T07:30:32;4.03;;;1.90;;
65230;SDS011;51813;40.666;16.602;2023-10-31T07:32:57;4.20;;;2.17;;
65230;SDS011;51813;40.666;16.602;2023-10-31T07:35:23;3.47;;;1.80;;
65230;SDS011;51813;40.666;16.602;2023-10-31T07:37:49;3.88;;;2.05;;
65230;SDS011;51813;40.666;16.602;2023-10-31T07:40:14;3.42;;;2.00;;
65230;SDS011;51813;40.666;16.602;2023-10-31T07:42:40;4.65;;;2.10;;
65230;SDS011;51813;40.666;16.602;2023-10-31T07:45:06;3.67;;;2.20;;
65230;SDS011;51813;40.666;16.602;2023-10-31T07:47:32;3.38;;;2.20;;
65230;SDS011;51813;40.666;16.602;2023-10-31T07:49:57;3.30;;;2.17;;
65230;SDS011;51813;40.666;16.602;2023-10-31T07:52:24;4.18;;;2.30;;
65230;SDS011;51813;40.666;16.602;2023-10-31T07:54:49;2.97;;;1.70;;
65230;SDS011;51813;40.666;16.602;2023-10-31T07:57:15;4.13;;;2.13;;
65230;SDS011;51813;40.666;16.602;2023-10-31T07:59:41;5.03;;;2.42;;
65230;SDS011;51813;40.666;16.602;2023-10-31T08:02:06;3.05;;;1.90;;
65230;SDS011;51813;40.666;16.602;2023-10-31T08:04:32;4.85;;;2.25;;
65230;SDS011;51813;40.666;16.602;2023-10-31T08:06:58;3.75;;;2.15;;
65230;SDS011;51813;40.666;16.602;2023-10-31T08:09:23;3.42;;;2.00;;
65230;SDS011;51813;40.666;16.602;2023-10-31T08:11:49;4.25;;;2.22;;
65230;SDS011;51813;40.666;16.602;2023-10-31T08:14:14;4.97;;;2.15;;
65230;SDS011;51813;40.666;16.602;2023-10-31T08:16:41;4.75;;;2.10;;
65230;SDS011;51813;40.666;16.602;2023-10-31T08:19:07;3.65;;;2.50;;
65230;SDS011;51813;40.666;16.602;2023-10-31T08:21:33;3.88;;;2.20;;
65230;SDS011;51813;40.666;16.602;2023-10-31T08:24:04;3.97;;;1.92;;
65230;SDS011;51813;40.666;16.602;2023-10-31T08:26:33;4.17;;;2.00;;
65230;SDS011;51813;40.666;16.602;2023-10-31T08:28:59;2.90;;;1.80;;
65230;SDS011;51813;40.666;16.602;2023-10-31T08:31:25;2.92;;;1.90;;
65230;SDS011;51813;40.666;16.602;2023-10-31T08:33:50;4.13;;;2.03;;
65230;SDS011;51813;40.666;16.602;2023-10-31T08:36:16;4.72;;;2.10;;
65230;SDS011;51813;40.666;16.602;2023-10-31T08:38:42;2.53;;;1.80;;
65230;SDS011;51813;40.666;16.602;2023-10-31T08:41:07;3.67;;;1.88;;
65230;SDS011;51813;40.666;16.602;2023-10-31T08:43:33;3.75;;;1.80;;
65230;SDS011;51813;40.666;16.602;2023-10-31T08:45:59;3.28;;;2.00;;
65230;SDS011;51813;40.666;16.602;2023-10-31T08:48:25;3.15;;;1.98;;
65230;SDS011;51813;40.666;16.602;2023-10-31T08:50:51;3.70;;;1.70;;
65230;SDS011;51813;40.666;16.602;2023-10-31T08:53:17;3.88;;;1.90;;
65230;SDS011;51813;40.666;16.602;2023-10-31T08:55:44;3.42;;;2.10;;
65230;SDS011;51813;40.666;16.602;2023-10-31T08:58:13;3.72;;;1.80;;
65230;SDS011;51813;40.666;16.602;2023-10-31T09:00:39;4.00;;;2.00;;
65230;SDS011;51813;40.666;16.602;2023-10-31T09:03:07;3.00;;;1.90;;
65230;SDS011;51813;40.666;16.602;2023-10-31T09:05:33;3.70;;;1.77;;
65230;SDS011;51813;40.666;16.602;2023-10-31T09:07:59;3.60;;;1.95;;
65230;SDS011;51813;40.666;16.602;2023-10-31T09:10:24;3.55;;;2.03;;
65230;SDS011;51813;40.666;16.602;2023-10-31T09:12:50;5.13;;;2.15;;
65230;SDS011;51813;40.666;16.602;2023-10-31T09:15:16;4.63;;;1.98;;
65230;SDS011;51813;40.666;16.602;2023-10-31T09:17:41;3.83;;;2.00;;
65230;SDS011;51813;40.666;16.602;2023-10-31T09:20:08;3.47;;;1.70;;
65230;SDS011;51813;40.666;16.602;2023-10-31T09:22:34;3.88;;;2.08;;
65230;SDS011;51813;40.666;16.602;2023-10-31T09:24:59;3.58;;;2.00;;
65230;SDS011;51813;40.666;16.602;2023-10-31T09:27:25;3.45;;;1.63;;
65230;SDS011;51813;40.666;16.602;2023-10-31T09:29:51;3.60;;;1.98;;
65230;SDS011;51813;40.666;16.602;2023-10-31T09:32:18;4.60;;;2.10;;
65230;SDS011;51813;40.666;16.602;2023-10-31T09:34:43;3.67;;;2.00;;
65230;SDS011;51813;40.666;16.602;2023-10-31T09:37:09;4.55;;;2.05;;
65230;SDS011;51813;40.666;16.602;2023-10-31T09:39:35;3.75;;;2.05;;
65230;SDS011;51813;40.666;16.602;2023-10-31T09:42:00;4.57;;;2.50;;
65230;SDS011;51813;40.666;16.602;2023-10-31T09:44:26;9.43;;;3.40;;
65230;SDS011;51813;40.666;16.602;2023-10-31T09:46:52;5.20;;;2.10;;
65230;SDS011;51813;40.666;16.602;2023-10-31T09:49:18;7.65;;;2.80;;
65230;SDS011;51813;40.666;16.602;2023-10-31T09:51:44;7.05;;;2.60;;
65230;SDS011;51813;40.666;16.602;2023-10-31T09:54:12;6.88;;;2.28;;
65230;SDS011;51813;40.666;16.602;2023-10-31T09:56:40;8.05;;;2.50;;
65230;SDS011;51813;40.666;16.602;2023-10-31T09:59:07;5.88;;;2.70;;
65230;SDS011;51813;40.666;16.602;2023-10-31T10:01:33;6.70;;;2.70;;
65230;SDS011;51813;40.666;16.602;2023-10-31T10:03:58;4.28;;;2.42;;
65230;SDS011;51813;40.666;16.602;2023-10-31T10:06:24;4.75;;;2.20;;
65230;SDS011;51813;40.666;16.602;2023-10-31T10:08:51;7.03;;;2.40;;
65230;SDS011;51813;40.666;16.602;2023-10-31T10:11:17;7.88;;;3.03;;
65230;SDS011;51813;40.666;16.602;2023-10-31T10:13:43;5.68;;;2.55;;
65230;SDS011;51813;40.666;16.602;2023-10-31T10:16:09;4.90;;;2.42;;
65230;SDS011;51813;40.666;16.602;2023-10-31T10:18:35;5.05;;;2.33;;
65230;SDS011;51813;40.666;16.602;2023-10-31T10:21:05;6.25;;;2.40;;
65230;SDS011;51813;40.666;16.602;2023-10-31T10:23:33;5.65;;;2.30;;
65230;SDS011;51813;40.666;16.602;2023-10-31T10:25:59;4.93;;;2.33;;
65230;SDS011;51813;40.666;16.602;2023-10-31T10:28:26;5.43;;;2.40;;
65230;SDS011;51813;40.666;16.602;2023-10-31T10:30:55;7.90;;;3.22;;
65230;SDS011;51813;40.666;16.602;2023-10-31T10:33:21;6.20;;;2.60;;
65230;SDS011;51813;40.666;16.602;2023-10-31T10:35:47;8.13;;;2.90;;
65230;SDS011;51813;40.666;16.602;2023-10-31T10:38:13;7.20;;;2.85;;
65230;SDS011;51813;40.666;16.602;2023-10-31T10:40:43;5.72;;;2.60;;
65230;SDS011;51813;40.666;16.602;2023-10-31T10:43:13;5.63;;;2.70;;
65230;SDS011;51813;40.666;16.602;2023-10-31T10:45:55;8.05;;;2.60;;
65230;SDS011;51813;40.666;16.602;2023-10-31T10:48:22;6.95;;;2.50;;
65230;SDS011;51813;40.666;16.602;2023-10-31T10:53:40;4.72;;;2.22;;
65230;SDS011;51813;40.666;16.602;2023-10-31T10:57:15;6.05;;;2.50;;
65230;SDS011;51813;40.666;16.602;2023-10-31T10:59:20;5.90;;;2.47;;
65230;SDS011;51813;40.666;16.602;2023-10-31T11:01:48;5.55;;;2.55;;
65230;SDS011;51813;40.666;16.602;2023-10-31T11:04:14;7.15;;;2.90;;
65230;SDS011;51813;40.666;16.602;2023-10-31T11:06:41;8.30;;;2.80;;
65230;SDS011;51813;40.666;16.602;2023-10-31T11:09:08;6.20;;;2.65;;
65230;SDS011;51813;40.666;16.602;2023-10-31T11:11:37;6.13;;;2.38;;
65230;SDS011;51813;40.666;16.602;2023-10-31T11:14:03;5.40;;;2.38;;
65230;SDS011;51813;40.666;16.602;2023-10-31T11:16:30;5.13;;;2.33;;
65230;SDS011;51813;40.666;16.602;2023-10-31T11:19:04;7.43;;;2.50;;
65230;SDS011;51813;40.666;16.602;2023-10-31T11:21:30;8.05;;;2.53;;
65230;SDS011;51813;40.666;16.602;2023-10-31T11:23:59;7.10;;;2.63;;
65230;SDS011;51813;40.666;16.602;2023-10-31T11:26:31;6.05;;;2.80;;
65230;SDS011;51813;40.666;16.602;2023-10-31T11:29:03;4.90;;;2.13;;
65230;SDS011;51813;40.666;16.602;2023-10-31T11:31:30;4.93;;;2.30;;
65230;SDS011;51813;40.666;16.602;2023-10-31T11:33:57;6.68;;;2.33;;
65230;SDS011;51813;40.666;16.602;2023-10-31T11:36:25;5.88;;;2.80;;
65230;SDS011;51813;40.666;16.602;2023-10-31T11:38:51;5.78;;;2.65;;
65230;SDS011;51813;40.666;16.602;2023-10-31T11:41:38;9.13;;;2.78;;
65230;SDS011;51813;40.666;16.602;2023-10-31T11:44:04;5.82;;;2.30;;
65230;SDS011;51813;40.666;16.602;2023-10-31T11:46:30;11.15;;;2.80;;
65230;SDS011;51813;40.666;16.602;2023-10-31T11:48:55;4.82;;;2.40;;
65230;SDS011;51813;40.666;16.602;2023-10-31T11:51:22;5.88;;;2.30;;
65230;SDS011;51813;40.666;16.602;2023-10-31T11:53:48;7.60;;;2.30;;
65230;SDS011;51813;40.666;16.602;2023-10-31T11:56:17;7.68;;;2.83;;
65230;SDS011;51813;40.666;16.602;2023-10-31T11:58:44;7.28;;;3.10;;
65230;SDS011;51813;40.666;16.602;2023-10-31T12:01:09;9.38;;;3.10;;
65230;SDS011;51813;40.666;16.602;2023-10-31T12:03:42;5.55;;;2.97;;
65230;SDS011;51813;40.666;16.602;2023-10-31T12:06:12;6.88;;;3.03;;
65230;SDS011;51813;40.666;16.602;2023-10-31T12:08:42;6.53;;;2.60;;
65230;SDS011;51813;40.666;16.602;2023-10-31T12:11:10;8.60;;;3.13;;
65230;SDS011;51813;40.666;16.602;2023-10-31T12:13:57;7.45;;;2.83;;
65230;SDS011;51813;40.666;16.602;2023-10-31T12:16:24;7.80;;;2.28;;
65230;SDS011;51813;40.666;16.602;2023-10-31T12:18:59;5.25;;;2.38;;
65230;SDS011;51813;40.666;16.602;2023-10-31T12:21:39;5.43;;;2.30;;
65230;SDS011;51813;40.666;16.602;2023-10-31T12:24:10;6.32;;;2.20;;
65230;SDS011;51813;40.666;16.602;2023-10-31T12:26:37;6.32;;;2.45;;
65230;SDS011;51813;40.666;16.602;2023-10-31T12:29:10;5.32;;;2.28;;
65230;SDS011;51813;40.666;16.602;2023-10-31T12:34:12;5.57;;;2.40;;
65230;SDS011;51813;40.666;16.602;2023-10-31T12:36:39;6.15;;;2.63;;
65230;SDS011;51813;40.666;16.602;2023-10-31T12:39:06;4.85;;;2.00;;
65230;SDS011;51813;40.666;16.602;2023-10-31T12:41:34;5.63;;;2.53;;
65230;SDS011;51813;40.666;16.602;2023-10-31T12:44:01;6.00;;;2.20;;
65230;SDS011;51813;40.666;16.602;2023-10-31T12:46:30;5.30;;;2.30;;
65230;SDS011;51813;40.666;16.602;2023-10-31T12:48:57;5.70;;;2.17;;
65230;SDS011;51813;40.666;16.602;2023-10-31T12:51:23;6.60;;;2.50;;
65230;SDS011;51813;40.666;16.602;2023-10-31T12:53:52;5.50;;;2.40;;
65230;SDS011;51813;40.666;16.602;2023-10-31T12:56:34;5.95;;;2.20;;
65230;SDS011;51813;40.666;16.602;2023-10-31T12:59:07;3.38;;;1.75;;
65230;SDS011;51813;40.666;16.602;2023-10-31T13:01:35;4.65;;;2.08;;
65230;SDS011;51813;40.666;16.602;2023-10-31T13:04:04;5.47;;;2.10;;
65230;SDS011;51813;40.666;16.602;2023-10-31T13:06:30;3.60;;;2.00;;
65230;SDS011;51813;40.666;16.602;2023-10-31T13:08:56;4.03;;;2.03;;
65230;SDS011;51813;40.666;16.602;2023-10-31T13:11:22;4.47;;;1.98;;
65230;SDS011;51813;40.666;16.602;2023-10-31T13:13:54;5.00;;;1.92;;
65230;SDS011;51813;40.666;16.602;2023-10-31T13:16:19;4.65;;;2.15;;
65230;SDS011;51813;40.666;16.602;2023-10-31T13:18:45;6.78;;;2.00;;
65230;SDS011;51813;40.666;16.602;2023-10-31T13:21:11;7.95;;;2.20;;
65230;SDS011;51813;40.666;16.602;2023-10-31T13:23:39;4.75;;;1.98;;
65230;SDS011;51813;40.666;16.602;2023-10-31T13:26:08;5.30;;;1.92;;
65230;SDS011;51813;40.666;16.602;2023-10-31T13:28:34;5.05;;;1.98;;
65230;SDS011;51813;40.666;16.602;2023-10-31T13:31:00;5.03;;;2.05;;
65230;SDS011;51813;40.666;16.602;2023-10-31T13:33:27;4.50;;;1.75;;
65230;SDS011;51813;40.666;16.602;2023-10-31T13:35:53;5.80;;;2.20;;
65230;SDS011;51813;40.666;16.602;2023-10-31T13:38:18;4.28;;;1.95;;
65230;SDS011;51813;40.666;16.602;2023-10-31T13:40:44;4.15;;;1.70;;
65230;SDS011;51813;40.666;16.602;2023-10-31T13:43:10;5.43;;;1.90;;
65230;SDS011;51813;40.666;16.602;2023-10-31T13:45:35;7.55;;;2.10;;
65230;SDS011;51813;40.666;16.602;2023-10-31T13:48:01;4.80;;;1.88;;
65230;SDS011;51813;40.666;16.602;2023-10-31T13:50:28;4.75;;;1.88;;
65230;SDS011;51813;40.666;16.602;2023-10-31T13:52:53;3.97;;;1.90;;
65230;SDS011;51813;40.666;16.602;2023-10-31T13:55:21;5.78;;;2.08;;
65230;SDS011;51813;40.666;16.602;2023-10-31T13:57:48;6.03;;;2.00;;
65230;SDS011;51813;40.666;16.602;2023-10-31T14:00:14;4.05;;;1.83;;
65230;SDS011;51813;40.666;16.602;2023-10-31T14:02:40;6.45;;;2.17;;
65230;SDS011;51813;40.666;16.602;2023-10-31T14:05:06;3.97;;;1.83;;
65230;SDS011;51813;40.666;16.602;2023-10-31T14:07:32;4.55;;;1.60;;
65230;SDS011;51813;40.666;16.602;2023-10-31T14:09:58;2.70;;;1.50;;
65230;SDS011;51813;40.666;16.602;2023-10-31T14:12:24;3.65;;;1.52;;
65230;SDS011;51813;40.666;16.602;2023-10-31T14:14:50;4.50;;;1.85;;
65230;SDS011;51813;40.666;16.602;2023-10-31T14:17:16;3.95;;;1.70;;
65230;SDS011;51813;40.666;16.602;2023-10-31T14:19:43;3.28;;;1.30;;
65230;SDS011;51813;40.666;16.602;2023-10-31T14:22:09;3.65;;;1.42;;
65230;SDS011;51813;40.666;16.602;2023-10-31T14:24:37;3.25;;;1.80;;
65230;SDS011;51813;40.666;16.602;2023-10-31T14:27:02;4.07;;;1.40;;
65230;SDS011;51813;40.666;16.602;2023-10-31T14:29:28;3.80;;;1.65;;
65230;SDS011;51813;40.666;16.602;2023-10-31T14:31:54;3.75;;;1.55;;
65230;SDS011;51813;40.666;16.602;2023-10-31T14:34:20;3.72;;;1.52;;